createdAt,value
2019-01-18T00:02:08.244Z,20.92
2019-01-18T00:04:36.519Z,22.13
2019-01-18T00:07:04.844Z,20.05
2019-01-18T00:09:33.123Z,23.20
2019-01-18T00:12:01.395Z,16.67
2019-01-18T00:14:29.706Z,22.55
2019-01-18T00:16:57.995Z,15.35
2019-01-18T00:19:26.276Z,19.00
2019-01-18T00:21:54.605Z,24.57
2019-01-18T00:24:22.951Z,13.18
2019-01-18T00:26:51.237Z,23.45
2019-01-18T00:29:19.567Z,34.13
2019-01-18T00:31:47.856Z,19.50
2019-01-18T00:34:16.160Z,20.25
2019-01-18T00:36:44.489Z,28.55
2019-01-18T00:39:12.774Z,23.12
2019-01-18T00:41:41.130Z,25.77
2019-01-18T00:44:09.522Z,21.48
2019-01-18T00:46:37.810Z,26.60
2019-01-18T00:49:06.098Z,21.00
2019-01-18T00:51:34.421Z,15.55
2019-01-18T00:54:02.704Z,24.35
2019-01-18T00:56:30.983Z,14.47
2019-01-18T00:58:59.310Z,17.32
2019-01-18T01:01:27.589Z,17.98
2019-01-18T01:03:55.946Z,33.35
2019-01-18T01:06:24.342Z,23.10
2019-01-18T01:08:52.635Z,23.65
2019-01-18T01:11:20.921Z,22.35
2019-01-18T01:13:49.380Z,20.72
2019-01-18T01:16:17.661Z,28.27
2019-01-18T01:18:46.014Z,23.80
2019-01-18T01:21:14.333Z,23.47
2019-01-18T01:23:42.625Z,26.30
2019-01-18T01:26:10.985Z,25.82
2019-01-18T01:28:39.311Z,25.20
2019-01-18T01:31:07.591Z,21.27
2019-01-18T01:33:36.009Z,18.87
2019-01-18T01:36:04.329Z,19.07
2019-01-18T01:38:32.628Z,18.17
2019-01-18T01:41:00.929Z,15.75
2019-01-18T01:43:29.253Z,13.50
2019-01-18T01:45:57.554Z,11.80
2019-01-18T01:48:25.839Z,19.07
2019-01-18T01:50:54.228Z,18.87
2019-01-18T01:53:22.977Z,14.95
2019-01-18T01:55:51.266Z,27.48
2019-01-18T01:58:19.665Z,16.82
2019-01-18T02:00:47.943Z,18.35
2019-01-18T02:03:16.302Z,19.10
2019-01-18T02:05:44.708Z,24.12
2019-01-18T02:08:13.065Z,15.18
2019-01-18T02:10:41.360Z,13.15
2019-01-18T02:13:09.759Z,16.27
2019-01-18T02:15:38.045Z,18.80
2019-01-18T02:18:06.346Z,19.85
2019-01-18T02:20:34.657Z,20.62
2019-01-18T02:23:03.010Z,19.30
2019-01-18T02:25:32.436Z,17.17
2019-01-18T02:28:00.757Z,17.73
2019-01-18T02:30:29.050Z,16.02
2019-01-18T02:32:57.337Z,13.13
2019-01-18T02:38:19.630Z,16.90
2019-01-18T02:40:47.923Z,19.90
2019-01-18T02:43:16.227Z,18.07
2019-01-18T02:45:44.525Z,17.48
2019-01-18T02:48:12.805Z,20.02
2019-01-18T02:50:41.094Z,23.20
2019-01-18T02:53:09.484Z,14.30
2019-01-18T02:55:37.766Z,34.18
2019-01-18T02:58:06.052Z,25.10
2019-01-18T03:00:34.394Z,16.62
2019-01-18T03:03:02.672Z,23.10
2019-01-18T03:05:30.965Z,22.00
2019-01-18T03:07:59.292Z,22.48
2019-01-18T03:10:28.916Z,22.48
2019-01-18T03:12:57.199Z,22.07
2019-01-18T03:15:25.590Z,21.17
2019-01-18T03:17:53.880Z,21.48
2019-01-18T03:20:22.165Z,30.08
2019-01-18T03:22:50.479Z,19.37
2019-01-18T03:25:21.452Z,26.12
2019-01-18T03:27:49.744Z,22.93
2019-01-18T03:30:20.803Z,39.55
2019-01-18T03:32:49.020Z,21.73
2019-01-18T03:35:19.136Z,17.00
2019-01-18T03:37:47.455Z,16.45
2019-01-18T03:40:16.879Z,22.05
2019-01-18T03:42:45.155Z,13.50
2019-01-18T03:45:15.306Z,16.48
2019-01-18T03:47:43.621Z,16.32
2019-01-18T03:50:17.081Z,23.12
2019-01-18T03:52:45.398Z,13.15
2019-01-18T03:55:13.759Z,13.85
2019-01-18T03:57:42.035Z,22.55
2019-01-18T04:00:13.464Z,20.75
2019-01-18T04:02:41.743Z,14.75
2019-01-18T04:05:10.967Z,14.33
2019-01-18T04:07:39.290Z,22.07
2019-01-18T04:10:10.891Z,22.30
2019-01-18T04:12:39.173Z,15.75
2019-01-18T04:15:10.963Z,23.42
2019-01-18T04:17:39.243Z,16.70
2019-01-18T04:20:10.462Z,15.05
2019-01-18T04:22:38.790Z,16.60
2019-01-18T04:25:10.094Z,14.33
2019-01-18T04:27:38.459Z,19.12
2019-01-18T04:30:12.507Z,7.67
2019-01-18T04:32:40.791Z,11.53
2019-01-18T04:35:10.406Z,9.73
2019-01-18T04:37:38.706Z,8.88
2019-01-18T04:40:10.299Z,9.85
2019-01-18T04:42:38.583Z,10.20
2019-01-18T04:45:08.433Z,10.50
2019-01-18T04:47:36.704Z,11.73
2019-01-18T04:50:11.053Z,10.95
2019-01-18T04:52:39.443Z,8.88
2019-01-18T04:55:09.166Z,13.22
2019-01-18T04:57:37.516Z,10.25
2019-01-18T05:00:09.175Z,11.33
2019-01-18T05:02:37.460Z,12.50
2019-01-18T05:05:06.476Z,12.88
2019-01-18T05:07:34.794Z,14.53
2019-01-18T05:10:04.821Z,12.13
2019-01-18T05:12:33.098Z,10.90
2019-01-18T05:15:01.416Z,11.18
2019-01-18T05:17:29.701Z,12.43
2019-01-18T05:19:57.976Z,8.40
2019-01-18T05:22:26.292Z,21.30
2019-01-18T05:24:54.574Z,18.20
2019-01-18T05:27:22.862Z,19.95
2019-01-18T05:29:51.264Z,13.00
2019-01-18T05:32:19.554Z,20.92
2019-01-18T05:34:47.852Z,20.35
2019-01-18T05:37:16.176Z,15.58
2019-01-18T05:39:44.454Z,12.35
2019-01-18T05:42:12.817Z,10.95
2019-01-18T05:44:41.150Z,16.27
2019-01-18T05:47:09.431Z,19.17
2019-01-18T05:49:37.721Z,28.27
2019-01-18T05:52:06.039Z,17.80
2019-01-18T05:54:34.321Z,17.90
2019-01-18T05:57:02.610Z,23.73
2019-01-18T05:59:30.945Z,11.88
2019-01-18T06:01:59.225Z,17.90
2019-01-18T06:04:27.511Z,8.93
2019-01-18T06:06:55.828Z,20.43
2019-01-18T06:09:24.176Z,18.62
2019-01-18T06:11:52.467Z,21.90
2019-01-18T06:14:20.795Z,10.58
2019-01-18T06:16:49.077Z,16.50
2019-01-18T06:19:17.346Z,19.67
2019-01-18T06:21:45.668Z,11.63
2019-01-18T06:24:13.950Z,20.35
2019-01-18T06:26:42.229Z,25.80
2019-01-18T06:29:10.574Z,18.30
2019-01-18T06:31:38.858Z,26.42
2019-01-18T06:34:07.147Z,19.65
2019-01-18T06:36:35.537Z,27.90
2019-01-18T06:39:05.519Z,27.32
2019-01-18T06:41:34.587Z,27.65
2019-01-18T06:44:02.906Z,19.20
2019-01-18T06:46:31.191Z,19.02
2019-01-18T06:48:59.745Z,15.83
2019-01-18T06:51:28.156Z,19.02
2019-01-18T06:53:56.438Z,19.42
2019-01-18T06:56:24.719Z,24.07
2019-01-18T06:58:53.036Z,17.70
2019-01-18T07:01:21.318Z,21.15
2019-01-18T07:03:49.675Z,27.45
2019-01-18T07:06:17.995Z,24.52
2019-01-18T07:08:46.273Z,22.22
2019-01-18T07:11:14.632Z,32.35
2019-01-18T07:13:42.958Z,34.85
2019-01-18T07:16:11.241Z,39.40
2019-01-18T07:18:39.526Z,28.75
2019-01-18T07:21:07.850Z,34.67
2019-01-18T07:23:36.205Z,39.63
2019-01-18T07:26:04.491Z,31.40
2019-01-18T07:28:32.812Z,34.95
2019-01-18T07:31:01.232Z,37.10
2019-01-18T07:33:29.517Z,57.38
2019-01-18T07:35:57.839Z,80.35
2019-01-18T07:38:26.124Z,65.70
2019-01-18T07:40:54.478Z,85.00
2019-01-18T07:43:22.874Z,100.10
2019-01-18T07:45:51.160Z,86.15
2019-01-18T07:48:19.442Z,99.52
2019-01-18T07:50:47.768Z,95.47
2019-01-18T07:53:16.440Z,92.60
2019-01-18T07:55:44.723Z,104.12
2019-01-18T07:58:13.044Z,93.07
2019-01-18T08:00:41.960Z,102.95
2019-01-18T08:03:10.245Z,116.03
2019-01-18T08:05:38.580Z,115.85
2019-01-18T08:08:06.934Z,114.77
2019-01-18T08:10:35.285Z,107.87
2019-01-18T08:13:03.717Z,89.52
2019-01-18T08:15:33.107Z,99.83
2019-01-18T08:18:01.576Z,105.32
2019-01-18T08:20:30.163Z,97.17
2019-01-18T08:22:58.687Z,87.75
2019-01-18T08:25:27.205Z,95.28
2019-01-18T08:27:55.607Z,100.65
2019-01-18T08:30:26.497Z,99.25
2019-01-18T09:08:16.800Z,105.03
2019-01-18T09:10:46.554Z,93.67
2019-01-18T09:13:14.921Z,93.67
2019-01-18T09:15:43.239Z,87.80
2019-01-18T09:18:11.510Z,78.53
2019-01-18T09:20:39.785Z,77.73
2019-01-18T09:23:08.096Z,81.50
2019-01-18T09:25:36.390Z,78.03
2019-01-18T09:28:04.648Z,84.00
2019-01-18T09:30:34.274Z,44.63
2019-01-18T09:33:03.688Z,52.57
2019-01-18T09:35:32.694Z,38.70
2019-01-18T09:38:02.241Z,27.87
2019-01-18T09:40:32.351Z,32.87
2019-01-18T09:43:00.626Z,32.37
2019-01-18T09:45:29.011Z,64.20
2019-01-18T09:47:57.286Z,40.47
2019-01-18T09:50:27.875Z,36.83
2019-01-18T09:52:56.339Z,31.90
2019-01-18T09:55:24.619Z,35.13
2019-01-18T09:57:52.902Z,23.40
2019-01-18T10:00:35.513Z,38.97
2019-01-18T10:03:03.861Z,56.67
2019-01-18T10:05:32.207Z,72.93
2019-01-18T10:08:00.589Z,72.13
2019-01-18T10:10:28.875Z,71.20
2019-01-18T10:12:57.146Z,62.63
2019-01-18T10:15:42.010Z,56.50
2019-01-18T10:18:10.367Z,50.47
2019-01-18T10:20:38.643Z,42.57
2019-01-18T10:23:06.960Z,53.97
2019-01-18T10:25:35.240Z,45.13
2019-01-18T10:28:03.520Z,46.83
2019-01-18T10:30:31.816Z,54.93
2019-01-18T10:33:00.100Z,43.20
2019-01-18T10:35:28.818Z,44.53
2019-01-18T10:37:57.142Z,69.63
2019-01-18T10:40:25.689Z,82.47
2019-01-18T10:42:53.995Z,102.80
2019-01-18T10:45:22.526Z,98.20
2019-01-18T10:47:51.251Z,79.07
2019-01-18T10:50:28.230Z,90.43
2019-01-18T10:52:56.519Z,80.63
2019-01-18T10:55:24.790Z,81.17
2019-01-18T10:57:53.098Z,88.67
2019-01-18T11:00:30.143Z,99.47
2019-01-18T11:02:58.523Z,102.90
2019-01-18T11:05:26.802Z,104.47
2019-01-18T11:07:55.102Z,152.90
2019-01-18T11:10:23.415Z,95.47
2019-01-18T11:12:51.694Z,103.73
2019-01-18T11:15:23.241Z,127.43
2019-01-18T11:17:51.551Z,149.23
2019-01-18T11:20:22.644Z,180.40
2019-01-18T11:22:51.751Z,129.80
2019-01-18T11:25:20.072Z,112.23
2019-01-18T11:27:50.381Z,128.20
2019-01-18T11:30:18.658Z,103.33
2019-01-18T11:32:46.980Z,103.27
2019-01-18T11:35:15.258Z,127.17
2019-01-18T11:37:43.545Z,130.37
2019-01-18T11:40:20.573Z,146.23
2019-01-18T11:42:48.859Z,115.13
2019-01-18T11:45:17.286Z,114.80
2019-01-18T11:47:45.669Z,136.27
2019-01-18T11:50:28.187Z,104.03
2019-01-18T11:52:56.499Z,148.30
2019-01-18T11:55:24.858Z,117.87
2019-01-18T11:57:53.137Z,112.73
2019-01-18T12:00:23.689Z,106.23
2019-01-18T12:02:52.048Z,103.10
2019-01-18T12:05:20.329Z,105.27
2019-01-18T12:07:48.731Z,112.67
2019-01-18T12:10:28.280Z,103.33
2019-01-18T12:12:56.605Z,121.07
2019-01-18T12:15:25.050Z,92.83
2019-01-18T12:17:53.404Z,111.43
2019-01-18T12:20:27.768Z,111.13
2019-01-18T12:22:56.259Z,124.30
2019-01-18T12:25:24.755Z,128.07
2019-01-18T12:27:53.270Z,114.93
2019-01-18T12:30:27.038Z,119.70
2019-01-18T12:32:55.457Z,121.13
2019-01-18T12:35:23.774Z,115.53
2019-01-18T12:37:52.264Z,112.40
2019-01-18T12:40:20.553Z,112.40
2019-01-18T12:42:48.877Z,128.57
2019-01-18T12:45:19.281Z,122.37
2019-01-18T12:47:47.652Z,115.83
2019-01-18T12:50:25.062Z,105.07
2019-01-18T12:52:53.336Z,97.87
2019-01-18T12:55:21.748Z,109.47
2019-01-18T12:57:51.719Z,116.50
2019-01-18T13:00:22.478Z,98.23
2019-01-18T13:02:50.770Z,105.43
2019-01-18T13:05:21.678Z,108.37
2019-01-18T13:07:50.199Z,102.77
2019-01-18T13:10:18.685Z,102.27
2019-01-18T13:12:47.067Z,101.60
2019-01-18T13:15:18.671Z,104.07
2019-01-18T13:17:47.159Z,99.77
2019-01-18T13:20:15.529Z,98.80
2019-01-18T13:22:44.039Z,105.47
2019-01-18T13:25:17.801Z,85.20
2019-01-18T13:27:46.327Z,107.67
2019-01-18T13:30:16.619Z,97.30
2019-01-18T13:32:44.887Z,88.67
2019-01-18T13:35:13.414Z,103.87
2019-01-18T13:37:41.696Z,92.03
2019-01-18T13:40:15.783Z,83.70
2019-01-18T13:42:44.089Z,76.17
2019-01-18T13:45:13.475Z,59.53
2019-01-18T13:47:42.700Z,84.40
2019-01-18T13:50:14.332Z,78.97
2019-01-18T13:52:42.822Z,109.27
2019-01-18T13:55:23.404Z,97.23
2019-01-18T13:57:51.748Z,74.83
2019-01-18T14:00:20.232Z,47.03
2019-01-18T14:02:48.815Z,45.03
2019-01-18T14:05:17.322Z,47.10
2019-01-18T14:07:45.809Z,44.00
2019-01-18T14:10:23.049Z,39.40
2019-01-18T14:12:51.396Z,68.23
2019-01-18T14:15:21.440Z,51.00
2019-01-18T14:17:50.000Z,44.30
2019-01-18T14:20:23.869Z,41.17
2019-01-18T14:22:52.645Z,30.60
2019-01-18T14:25:21.183Z,36.37
2019-01-18T14:27:49.674Z,33.33
2019-01-18T14:30:20.837Z,40.17
2019-01-18T14:32:55.155Z,39.87
2019-01-18T14:35:19.360Z,36.67
2019-01-18T14:37:47.846Z,32.67
2019-01-18T14:40:18.321Z,38.43
2019-01-18T14:42:51.209Z,38.83
2019-01-18T14:45:34.318Z,51.77
2019-01-18T14:48:02.792Z,51.83
2019-01-18T14:50:31.282Z,55.00
2019-01-18T14:52:59.807Z,80.17
2019-01-18T14:55:28.294Z,104.43
2019-01-18T14:57:56.777Z,84.60
2019-01-18T15:00:34.515Z,72.97
2019-01-18T15:03:04.561Z,76.43
2019-01-18T15:05:33.048Z,74.90
2019-01-18T15:08:01.571Z,70.40
2019-01-18T15:10:30.054Z,67.27
2019-01-18T15:13:07.704Z,80.37
2019-01-18T15:15:36.180Z,75.93
2019-01-18T15:18:04.667Z,76.90
2019-01-18T15:20:34.278Z,91.50
2019-01-18T15:23:02.965Z,84.10
2019-01-18T15:25:31.461Z,70.83
2019-01-18T15:28:00.990Z,77.83
2019-01-18T15:30:31.447Z,56.57
2019-01-18T15:33:00.798Z,57.27
2019-01-18T15:35:32.041Z,84.83
2019-01-18T15:38:00.491Z,80.47
2019-01-18T15:40:31.641Z,85.43
2019-01-18T15:43:01.168Z,124.63
2019-01-18T15:45:29.660Z,94.00
2019-01-18T15:47:58.151Z,104.10
2019-01-18T15:50:32.274Z,119.87
2019-01-18T15:53:00.806Z,105.10
2019-01-18T15:55:29.254Z,76.43
2019-01-18T15:57:57.759Z,76.33
2019-01-18T16:00:34.245Z,62.93
2019-01-18T16:03:02.766Z,67.33
2019-01-18T16:05:31.256Z,62.60
2019-01-18T16:07:59.742Z,87.00
2019-01-18T16:10:28.268Z,85.13
2019-01-18T16:12:56.803Z,157.57
2019-01-18T16:15:31.408Z,136.53
2019-01-18T16:18:00.049Z,125.37
2019-01-18T16:20:28.539Z,114.43
2019-01-18T16:22:57.024Z,137.90
2019-01-18T16:25:28.069Z,139.43
2019-01-18T16:27:56.559Z,131.40
2019-01-18T16:30:26.350Z,110.93
2019-01-18T16:32:57.430Z,103.73
2019-01-18T16:35:26.007Z,102.23
2019-01-18T16:37:54.510Z,95.60
2019-01-18T16:40:25.822Z,107.63
2019-01-18T16:43:00.506Z,122.20
2019-01-18T16:45:28.984Z,107.60
2019-01-18T16:47:57.499Z,92.13
2019-01-18T16:50:25.984Z,99.83
2019-01-18T16:52:54.488Z,88.70
2019-01-18T16:55:22.998Z,148.70
2019-01-18T16:57:51.487Z,149.77
2019-01-18T17:00:26.000Z,158.57
2019-01-18T17:02:54.725Z,158.27
2019-01-18T17:05:23.223Z,145.03
2019-01-18T17:07:51.707Z,145.43
2019-01-18T17:10:20.237Z,144.97
2019-01-18T17:12:48.752Z,147.43
2019-01-18T17:15:18.108Z,115.03
2019-01-18T17:17:46.625Z,87.93
2019-01-18T17:20:26.270Z,145.10
2019-01-18T17:22:54.802Z,116.10
2019-01-18T17:25:26.988Z,105.87
2019-01-18T17:27:55.499Z,109.77
2019-01-18T17:30:24.038Z,111.47
2019-01-18T17:32:52.528Z,107.63
2019-01-18T17:35:38.986Z,85.97
2019-01-18T17:38:16.175Z,88.37
2019-01-18T17:41:05.672Z,115.60
2019-01-18T17:44:05.397Z,74.63
2019-01-18T17:46:37.049Z,76.60
2019-01-18T17:49:14.417Z,82.13
2019-01-18T17:51:55.132Z,73.97
2019-01-18T17:54:35.406Z,85.87
2019-01-18T17:57:12.865Z,82.50
2019-01-18T17:59:59.280Z,72.77
2019-01-18T18:02:30.959Z,62.90
2019-01-18T18:05:25.308Z,57.80
2019-01-18T18:08:09.125Z,48.90
2019-01-18T18:10:49.395Z,59.90
2019-01-18T18:13:25.051Z,48.50
2019-01-18T18:16:11.632Z,51.83
2019-01-18T18:19:01.113Z,53.03
2019-01-18T18:21:50.427Z,56.10
2019-01-18T18:24:24.830Z,47.37
2019-01-18T18:27:12.943Z,45.07
2019-01-18T18:29:44.606Z,34.43
2019-01-18T18:32:18.807Z,29.83
2019-01-18T18:34:53.094Z,34.63
2019-01-18T18:37:50.341Z,36.87
2019-01-18T18:40:30.618Z,31.00
2019-01-18T18:43:11.945Z,56.77
2019-01-18T18:46:01.681Z,62.97
2019-01-18T18:48:39.397Z,62.57
2019-01-18T18:51:29.140Z,47.53
2019-01-18T18:54:24.390Z,42.70
2019-01-18T18:57:04.742Z,29.50
2019-01-18T18:59:42.345Z,36.00
2019-01-18T19:02:19.542Z,32.27
2019-01-18T19:04:56.900Z,26.20
2019-01-18T19:07:37.637Z,41.07
2019-01-18T19:10:42.150Z,35.03
2019-01-18T19:13:22.580Z,32.23
2019-01-18T19:16:02.814Z,35.13
2019-01-18T19:18:46.062Z,52.87
2019-01-18T19:21:20.684Z,52.83
2019-01-18T19:24:06.734Z,36.83
2019-01-18T19:26:38.357Z,31.83
2019-01-18T19:29:15.985Z,28.87
2019-01-18T19:31:55.975Z,35.67
2019-01-18T19:34:33.301Z,36.33
2019-01-18T19:37:26.009Z,32.50
2019-01-18T19:40:16.677Z,37.97
2019-01-18T19:43:06.872Z,54.60
2019-01-18T19:45:47.941Z,51.50
2019-01-18T19:48:34.178Z,59.00
2019-01-18T19:51:23.900Z,37.20
2019-01-18T19:54:04.396Z,61.97
2019-01-18T19:56:47.955Z,48.37
2019-01-18T19:59:19.559Z,57.63
2019-01-18T20:02:09.207Z,50.17
2019-01-18T20:04:55.640Z,48.87
2019-01-18T20:07:35.711Z,64.60
2019-01-18T20:10:28.174Z,64.63
2019-01-18T20:13:07.246Z,63.67
2019-01-18T20:15:50.760Z,58.53
2019-01-18T20:18:31.584Z,52.93
2019-01-18T20:21:12.167Z,65.97
2019-01-18T20:24:01.880Z,94.07
2019-01-18T20:26:45.009Z,108.13
2019-01-18T20:29:19.125Z,135.43
2019-01-18T20:32:20.507Z,129.73
2019-01-18T20:35:08.368Z,100.70
2019-01-18T20:37:52.136Z,88.57
2019-01-18T20:40:24.297Z,82.30
2019-01-18T20:43:19.898Z,109.87
2019-01-18T20:46:03.234Z,99.70
2019-01-18T20:48:40.880Z,96.50
2019-01-18T20:51:12.516Z,90.90
2019-01-18T20:53:53.036Z,112.20
2019-01-18T20:56:27.669Z,95.83
2019-01-18T20:58:59.295Z,107.67
2019-01-18T21:01:57.792Z,91.47
2019-01-18T21:04:50.326Z,110.20
2019-01-18T21:07:49.363Z,109.30
2019-01-18T21:10:26.609Z,93.43
2019-01-18T21:13:26.599Z,112.63
2019-01-18T21:16:06.998Z,102.83
2019-01-18T21:18:44.510Z,82.07
2019-01-18T21:21:41.675Z,76.93
2019-01-18T21:24:29.562Z,88.10
2019-01-18T21:27:07.220Z,76.83
2019-01-18T21:29:38.859Z,90.37
2019-01-18T21:32:28.540Z,81.23
2019-01-18T21:35:11.699Z,57.57
2019-01-18T21:37:43.294Z,52.97
2019-01-18T21:40:29.881Z,52.27
2019-01-18T21:43:16.413Z,61.77
2019-01-18T21:46:02.665Z,60.70
2019-01-18T21:48:42.907Z,76.70
2019-01-18T21:51:30.911Z,74.30
2019-01-18T21:54:02.512Z,63.30
2019-01-18T21:56:55.293Z,60.03
2019-01-18T21:59:51.027Z,44.77
2019-01-18T22:02:28.110Z,46.53
2019-01-18T22:05:17.667Z,44.73
2019-01-18T22:08:01.288Z,40.97
2019-01-18T22:10:32.830Z,36.57
2019-01-18T22:13:19.081Z,48.17
2019-01-18T22:16:12.956Z,40.30
2019-01-18T22:18:44.553Z,46.23
2019-01-18T22:21:37.229Z,51.47
2019-01-18T22:24:14.513Z,51.60
2019-01-18T22:27:08.531Z,34.63
2019-01-18T22:29:45.850Z,40.33
2019-01-18T22:32:26.141Z,37.90
2019-01-18T22:35:00.634Z,34.67
2019-01-18T22:37:46.846Z,35.63
2019-01-18T22:40:29.766Z,71.83
2019-01-18T22:43:21.507Z,60.43
2019-01-18T22:45:55.803Z,53.60
2019-01-18T22:48:30.076Z,43.97
2019-01-18T22:51:16.410Z,30.30
2019-01-18T22:53:47.945Z,34.93
2019-01-18T22:56:19.488Z,35.70
2019-01-18T22:58:53.546Z,36.73
2019-01-18T23:01:50.549Z,32.97
2019-01-18T23:04:33.692Z,28.23
2019-01-18T23:07:19.629Z,29.33
2019-01-18T23:10:12.255Z,27.60
2019-01-18T23:12:55.811Z,20.93
2019-01-18T23:16:01.667Z,34.40
2019-01-18T23:18:41.980Z,44.90
2019-01-18T23:21:25.710Z,40.83
2019-01-18T23:24:02.800Z,42.13
2019-01-18T23:26:55.047Z,40.63
2019-01-18T23:29:29.382Z,31.57
2019-01-18T23:32:00.943Z,47.37
2019-01-18T23:34:38.113Z,39.17
2019-01-18T23:37:27.705Z,35.20
2019-01-18T23:40:29.427Z,33.27
2019-01-18T23:43:09.610Z,33.33
2019-01-18T23:45:52.405Z,49.67
2019-01-18T23:48:58.355Z,48.33
2019-01-18T23:51:39.293Z,37.17
2019-01-18T23:54:31.865Z,40.23
2019-01-18T23:57:37.852Z,42.83
